RYR2AC EGCC-EIDW
Flight info
| Callsign | RYR2AC |
|---|---|
| Flight time | N/A |
| Altitude | 26000 |
| Route | ASMIM L975 WAL L10 PENIL/N0411F240 L28 LELDO M145 BAGSO BAGSO4L |
| Aircraft | B738/M-SDE2E3FGHIRWXY/LB1 |
Departure
| Time | 2026-05-06 20:13 |
|---|---|
| Airport | Manchester Airport (EGCC) |
Arrival
| Time | N/A |
|---|---|
| Airport | Dublin Airport (EIDW) |
| Time | Latitude | Longitude | Altitude | Speed | Heading |
|---|---|---|---|---|---|
| 2026-05-06 19:52 | 53.36069 | -2.26851 | 237 ft | 0 kts | 313° |
| 2026-05-06 20:02 | 53.36062 | -2.26838 | 237 ft | 0 kts | 313° |
| 2026-05-06 20:03 | 53.36027 | -2.26776 | 236 ft | 10 kts | 311° |
| 2026-05-06 20:03 | 53.36018 | -2.26752 | 237 ft | 0 kts | 279° |
| 2026-05-06 20:04 | 53.36018 | -2.26754 | 237 ft | 1 kts | 277° |
| 2026-05-06 20:04 | 53.35998 | -2.26801 | 236 ft | 9 kts | 217° |
| 2026-05-06 20:05 | 53.35910 | -2.26852 | 234 ft | 18 kts | 209° |
| 2026-05-06 20:05 | 53.35820 | -2.27038 | 237 ft | 24 kts | 238° |
| 2026-05-06 20:05 | 53.35767 | -2.27149 | 238 ft | 10 kts | 230° |
| 2026-05-06 20:05 | 53.35725 | -2.27237 | 240 ft | 9 kts | 231° |
| 2026-05-06 20:06 | 53.35684 | -2.27322 | 241 ft | 9 kts | 231° |
| 2026-05-06 20:06 | 53.35645 | -2.27405 | 243 ft | 9 kts | 231° |
| 2026-05-06 20:06 | 53.35606 | -2.27486 | 244 ft | 9 kts | 230° |
| 2026-05-06 20:06 | 53.35565 | -2.27568 | 245 ft | 10 kts | 230° |
| 2026-05-06 20:07 | 53.35545 | -2.27689 | 247 ft | 13 kts | 293° |
| 2026-05-06 20:07 | 53.35511 | -2.27831 | 249 ft | 12 kts | 223° |
| 2026-05-06 20:07 | 53.35509 | -2.27834 | 249 ft | 0 kts | 223° |
| 2026-05-06 20:07 | 53.35507 | -2.27838 | 249 ft | 2 kts | 223° |
| 2026-05-06 20:08 | 53.35483 | -2.27876 | 250 ft | 8 kts | 225° |
| 2026-05-06 20:08 | 53.35432 | -2.27959 | 251 ft | 13 kts | 223° |
| 2026-05-06 20:08 | 53.35357 | -2.28079 | 252 ft | 17 kts | 224° |
| 2026-05-06 20:08 | 53.35262 | -2.28241 | 253 ft | 21 kts | 229° |
| 2026-05-06 20:09 | 53.35159 | -2.28444 | 256 ft | 24 kts | 232° |
| 2026-05-06 20:09 | 53.35049 | -2.28681 | 259 ft | 27 kts | 230° |
| 2026-05-06 20:09 | 53.34927 | -2.28896 | 261 ft | 25 kts | 225° |
| 2026-05-06 20:09 | 53.34805 | -2.29116 | 264 ft | 27 kts | 230° |
| 2026-05-06 20:10 | 53.34710 | -2.29296 | 266 ft | 13 kts | 218° |
| 2026-05-06 20:10 | 53.34683 | -2.29322 | 267 ft | 0 kts | 204° |
| 2026-05-06 20:10 | 53.34680 | -2.29325 | 267 ft | 2 kts | 204° |
| 2026-05-06 20:10 | 53.34661 | -2.29336 | 267 ft | 5 kts | 197° |
| 2026-05-06 20:11 | 53.34614 | -2.29342 | 268 ft | 10 kts | 174° |
| 2026-05-06 20:11 | 53.34546 | -2.29249 | 269 ft | 18 kts | 92° |
| 2026-05-06 20:11 | 53.34596 | -2.29104 | 266 ft | 0 kts | 51° |
| 2026-05-06 20:12 | 53.34680 | -2.28931 | 265 ft | 53 kts | 51° |
| 2026-05-06 20:12 | 53.35058 | -2.28152 | 255 ft | 119 kts | 51° |
| 2026-05-06 20:12 | 53.35699 | -2.26823 | 264 ft | 170 kts | 51° |
| 2026-05-06 20:13 | 53.36469 | -2.25199 | 812 ft | 180 kts | 55° |
| 2026-05-06 20:13 | 53.37270 | -2.23503 | 1576 ft | 192 kts | 53° |
| 2026-05-06 20:13 | 53.38164 | -2.21775 | 2085 ft | 206 kts | 46° |
| 2026-05-06 20:13 | 53.39533 | -2.20764 | 2254 ft | 236 kts | 4° |
| 2026-05-06 20:14 | 53.41166 | -2.21581 | 2456 ft | 261 kts | 323° |
| 2026-05-06 20:14 | 53.42221 | -2.24068 | 3023 ft | 269 kts | 286° |
| 2026-05-06 20:14 | 53.42740 | -2.27015 | 3943 ft | 265 kts | 288° |
| 2026-05-06 20:14 | 53.43430 | -2.29833 | 5074 ft | 253 kts | 294° |
| 2026-05-06 20:15 | 53.44183 | -2.32471 | 5999 ft | 251 kts | 296° |
| 2026-05-06 20:15 | 53.44973 | -2.35118 | 6668 ft | 257 kts | 296° |
| 2026-05-06 20:15 | 53.45792 | -2.37804 | 7351 ft | 261 kts | 297° |
| 2026-05-06 20:15 | 53.46626 | -2.40545 | 8044 ft | 265 kts | 293° |
| 2026-05-06 20:16 | 53.46957 | -2.43599 | 8720 ft | 270 kts | 269° |
| 2026-05-06 20:16 | 53.46728 | -2.46756 | 9388 ft | 276 kts | 261° |
| 2026-05-06 20:16 | 53.46360 | -2.49916 | 10041 ft | 280 kts | 259° |
| 2026-05-06 20:16 | 53.45973 | -2.53127 | 10667 ft | 284 kts | 259° |
| 2026-05-06 20:17 | 53.45591 | -2.56413 | 11382 ft | 284 kts | 260° |
| 2026-05-06 20:17 | 53.45226 | -2.59653 | 12184 ft | 283 kts | 260° |
| 2026-05-06 20:17 | 53.44861 | -2.62929 | 12899 ft | 286 kts | 260° |
| 2026-05-06 20:17 | 53.44494 | -2.66242 | 13587 ft | 290 kts | 260° |
| 2026-05-06 20:18 | 53.44125 | -2.69571 | 14268 ft | 292 kts | 260° |
| 2026-05-06 20:18 | 53.43757 | -2.72899 | 14931 ft | 295 kts | 260° |
| 2026-05-06 20:18 | 53.43375 | -2.76341 | 15614 ft | 298 kts | 260° |
| 2026-05-06 20:18 | 53.42993 | -2.79771 | 16290 ft | 300 kts | 260° |
| 2026-05-06 20:19 | 53.42613 | -2.83183 | 16882 ft | 303 kts | 260° |
| 2026-05-06 20:19 | 53.42222 | -2.86677 | 17422 ft | 307 kts | 260° |
| 2026-05-06 20:19 | 53.41826 | -2.90206 | 17958 ft | 311 kts | 259° |
| 2026-05-06 20:19 | 53.41414 | -2.93877 | 18020 ft | 330 kts | 259° |
| 2026-05-06 20:20 | 53.40980 | -2.97738 | 18203 ft | 344 kts | 259° |
| 2026-05-06 20:20 | 53.40528 | -3.01736 | 18540 ft | 351 kts | 259° |
| 2026-05-06 20:20 | 53.40070 | -3.05766 | 19046 ft | 353 kts | 259° |
| 2026-05-06 20:20 | 53.39674 | -3.09834 | 19500 ft | 356 kts | 267° |
| 2026-05-06 20:21 | 53.39956 | -3.13977 | 19848 ft | 362 kts | 286° |
| 2026-05-06 20:21 | 53.40966 | -3.17806 | 20473 ft | 360 kts | 302° |
| 2026-05-06 20:21 | 53.42389 | -3.21266 | 21008 ft | 361 kts | 305° |
| 2026-05-06 20:21 | 53.43887 | -3.24702 | 21316 ft | 369 kts | 306° |
| 2026-05-06 20:22 | 53.45422 | -3.28194 | 21723 ft | 372 kts | 306° |
| 2026-05-06 20:22 | 53.46946 | -3.31696 | 22241 ft | 373 kts | 305° |
| 2026-05-06 20:22 | 53.48473 | -3.35242 | 22709 ft | 375 kts | 305° |
| 2026-05-06 20:22 | 53.50000 | -3.38825 | 23111 ft | 379 kts | 305° |
| 2026-05-06 20:23 | 53.51533 | -3.42441 | 23518 ft | 382 kts | 305° |
| 2026-05-06 20:23 | 53.53075 | -3.46093 | 23889 ft | 384 kts | 305° |
| 2026-05-06 20:23 | 53.54623 | -3.49769 | 24012 ft | 389 kts | 305° |
| 2026-05-06 20:23 | 53.56186 | -3.53484 | 23965 ft | 387 kts | 305° |
| 2026-05-06 20:24 | 53.57728 | -3.57152 | 24013 ft | 383 kts | 305° |
| 2026-05-06 20:24 | 53.59253 | -3.60788 | 24004 ft | 384 kts | 305° |